Spanish Fort, Alabama
Current Conditions -  °F | °C
As of 10:53 PM on Friday 19 Dec 2014 (Local Time) from KBFM Reporting Station
Light Rain Light Rain  
Wind Chill: 50°   Ceiling: 800
Heat Index: 50°   Visibility: 10mi
Dew Point: 47°   Wind: 14mph
Humidity: 89%   Direction: 30°NNE
Pressure: 30.12"   Gusts: NA
Location:  30.68°N, 87.88°W
Report Text: KBFM 200453Z AUTO 03012KT 10SM -RA BKN008 OVC047 10/08 A3012 RMK AO2 RAB35 CIG 006V011 SLP198 P0000 T01000083
Loading
Personal Weather Stations






























Interactive Weather Map New forecast layout! Learn more

10-Day Weather Forecast

Advertisements
Track Severe Weather on mobile